sensor_id;sensor_type;location;lat;lon;timestamp;temperature;humidity
7155;DHT22;3619;53.784;10.440;2023-04-30T00:02:17;3.30;99.90
7155;DHT22;3619;53.784;10.440;2023-04-30T00:04:44;3.20;99.90
7155;DHT22;3619;53.784;10.440;2023-04-30T00:07:12;3.20;99.90
7155;DHT22;3619;53.784;10.440;2023-04-30T00:09:39;3.20;99.90
7155;DHT22;3619;53.784;10.440;2023-04-30T00:12:05;3.20;99.90
7155;DHT22;3619;53.784;10.440;2023-04-30T00:14:32;3.10;99.90
7155;DHT22;3619;53.784;10.440;2023-04-30T00:16:59;3.00;99.90
7155;DHT22;3619;53.784;10.440;2023-04-30T00:19:26;3.00;99.90
7155;DHT22;3619;53.784;10.440;2023-04-30T00:21:52;3.00;99.90
7155;DHT22;3619;53.784;10.440;2023-04-30T00:24:21;3.00;99.90
7155;DHT22;3619;53.784;10.440;2023-04-30T00:26:47;3.00;99.90
7155;DHT22;3619;53.784;10.440;2023-04-30T00:29:14;2.90;99.90
7155;DHT22;3619;53.784;10.440;2023-04-30T00:31:41;2.90;99.90
7155;DHT22;3619;53.784;10.440;2023-04-30T00:34:08;2.80;99.90
7155;DHT22;3619;53.784;10.440;2023-04-30T00:36:34;2.70;99.90
7155;DHT22;3619;53.784;10.440;2023-04-30T00:39:01;2.70;99.90
7155;DHT22;3619;53.784;10.440;2023-04-30T00:41:30;2.70;99.90
7155;DHT22;3619;53.784;10.440;2023-04-30T00:43:57;2.60;99.90
7155;DHT22;3619;53.784;10.440;2023-04-30T00:46:26;2.60;99.90
7155;DHT22;3619;53.784;10.440;2023-04-30T00:48:53;2.60;99.90
7155;DHT22;3619;53.784;10.440;2023-04-30T00:51:20;2.50;99.90
7155;DHT22;3619;53.784;10.440;2023-04-30T00:53:47;2.50;99.90
7155;DHT22;3619;53.784;10.440;2023-04-30T00:56:14;2.50;99.90
7155;DHT22;3619;53.784;10.440;2023-04-30T00:58:44;2.50;99.90
7155;DHT22;3619;53.784;10.440;2023-04-30T01:01:11;2.40;99.90
7155;DHT22;3619;53.784;10.440;2023-04-30T01:03:38;2.30;99.90
7155;DHT22;3619;53.784;10.440;2023-04-30T01:06:06;2.30;99.90
7155;DHT22;3619;53.784;10.440;2023-04-30T01:08:32;2.30;99.90
7155;DHT22;3619;53.784;10.440;2023-04-30T01:11:18;2.30;99.90
7155;DHT22;3619;53.784;10.440;2023-04-30T01:13:57;2.30;99.90
7155;DHT22;3619;53.784;10.440;2023-04-30T01:16:26;2.30;99.90
7155;DHT22;3619;53.784;10.440;2023-04-30T01:18:58;2.30;99.90
7155;DHT22;3619;53.784;10.440;2023-04-30T01:21:27;2.40;99.90
7155;DHT22;3619;53.784;10.440;2023-04-30T01:24:17;2.30;99.90
7155;DHT22;3619;53.784;10.440;2023-04-30T01:26:58;2.40;99.90
7155;DHT22;3619;53.784;10.440;2023-04-30T01:29:31;2.30;99.90
7155;DHT22;3619;53.784;10.440;2023-04-30T01:32:00;2.30;99.90
7155;DHT22;3619;53.784;10.440;2023-04-30T01:34:28;2.20;99.90
7155;DHT22;3619;53.784;10.440;2023-04-30T01:37:05;2.20;99.90
7155;DHT22;3619;53.784;10.440;2023-04-30T01:39:56;2.10;99.90
7155;DHT22;3619;53.784;10.440;2023-04-30T01:42:29;2.10;99.90
7155;DHT22;3619;53.784;10.440;2023-04-30T01:45:14;2.10;99.90
7155;DHT22;3619;53.784;10.440;2023-04-30T01:47:49;2.10;99.90
7155;DHT22;3619;53.784;10.440;2023-04-30T01:50:24;2.10;99.90
7155;DHT22;3619;53.784;10.440;2023-04-30T01:52:53;2.10;99.90
7155;DHT22;3619;53.784;10.440;2023-04-30T01:55:26;2.00;99.90
7155;DHT22;3619;53.784;10.440;2023-04-30T01:57:56;1.90;99.90
7155;DHT22;3619;53.784;10.440;2023-04-30T02:00:25;2.00;99.90
7155;DHT22;3619;53.784;10.440;2023-04-30T02:02:52;1.90;99.90
7155;DHT22;3619;53.784;10.440;2023-04-30T02:05:19;1.90;99.90
7155;DHT22;3619;53.784;10.440;2023-04-30T02:07:48;1.90;99.90
7155;DHT22;3619;53.784;10.440;2023-04-30T02:10:16;1.90;99.90
7155;DHT22;3619;53.784;10.440;2023-04-30T02:12:43;1.90;99.90
7155;DHT22;3619;53.784;10.440;2023-04-30T02:15:10;1.80;99.90
7155;DHT22;3619;53.784;10.440;2023-04-30T02:17:38;1.80;99.90
7155;DHT22;3619;53.784;10.440;2023-04-30T02:20:06;1.80;99.90
7155;DHT22;3619;53.784;10.440;2023-04-30T02:22:33;1.80;99.90
7155;DHT22;3619;53.784;10.440;2023-04-30T02:25:00;1.80;99.90
7155;DHT22;3619;53.784;10.440;2023-04-30T02:27:31;1.80;99.90
7155;DHT22;3619;53.784;10.440;2023-04-30T02:29:58;1.90;99.90
7155;DHT22;3619;53.784;10.440;2023-04-30T02:32:25;1.90;99.90
7155;DHT22;3619;53.784;10.440;2023-04-30T02:34:53;1.90;99.90
7155;DHT22;3619;53.784;10.440;2023-04-30T02:37:20;1.90;99.90
7155;DHT22;3619;53.784;10.440;2023-04-30T02:39:48;1.90;99.90
7155;DHT22;3619;53.784;10.440;2023-04-30T02:42:14;1.80;99.90
7155;DHT22;3619;53.784;10.440;2023-04-30T02:44:41;1.80;99.90
7155;DHT22;3619;53.784;10.440;2023-04-30T02:47:08;1.80;99.90
7155;DHT22;3619;53.784;10.440;2023-04-30T02:49:35;1.80;99.90
7155;DHT22;3619;53.784;10.440;2023-04-30T02:52:03;1.80;99.90
7155;DHT22;3619;53.784;10.440;2023-04-30T02:54:30;1.80;99.90
7155;DHT22;3619;53.784;10.440;2023-04-30T02:56:57;1.80;99.90
7155;DHT22;3619;53.784;10.440;2023-04-30T02:59:24;1.70;99.90
7155;DHT22;3619;53.784;10.440;2023-04-30T03:01:51;1.60;99.90
7155;DHT22;3619;53.784;10.440;2023-04-30T03:04:18;1.60;99.90
7155;DHT22;3619;53.784;10.440;2023-04-30T03:06:45;1.70;99.90
7155;DHT22;3619;53.784;10.440;2023-04-30T03:09:13;1.70;99.90
7155;DHT22;3619;53.784;10.440;2023-04-30T03:11:41;1.70;99.90
7155;DHT22;3619;53.784;10.440;2023-04-30T03:14:10;1.70;99.90
7155;DHT22;3619;53.784;10.440;2023-04-30T03:16:37;1.60;99.90
7155;DHT22;3619;53.784;10.440;2023-04-30T03:19:04;1.60;99.90
7155;DHT22;3619;53.784;10.440;2023-04-30T03:21:30;1.60;99.90
7155;DHT22;3619;53.784;10.440;2023-04-30T03:23:58;1.70;99.90
7155;DHT22;3619;53.784;10.440;2023-04-30T03:26:26;1.70;99.90
7155;DHT22;3619;53.784;10.440;2023-04-30T03:28:52;1.70;99.90
7155;DHT22;3619;53.784;10.440;2023-04-30T03:31:22;1.60;99.90
7155;DHT22;3619;53.784;10.440;2023-04-30T03:33:49;1.60;99.90
7155;DHT22;3619;53.784;10.440;2023-04-30T03:36:16;1.70;99.90
7155;DHT22;3619;53.784;10.440;2023-04-30T03:38:43;1.70;99.90
7155;DHT22;3619;53.784;10.440;2023-04-30T03:41:10;1.60;99.90
7155;DHT22;3619;53.784;10.440;2023-04-30T03:43:38;1.60;99.90
7155;DHT22;3619;53.784;10.440;2023-04-30T03:46:05;1.60;99.90
7155;DHT22;3619;53.784;10.440;2023-04-30T03:48:32;1.60;99.90
7155;DHT22;3619;53.784;10.440;2023-04-30T03:50:59;1.70;99.90
7155;DHT22;3619;53.784;10.440;2023-04-30T03:53:25;1.70;99.90
7155;DHT22;3619;53.784;10.440;2023-04-30T03:55:53;1.60;99.90
7155;DHT22;3619;53.784;10.440;2023-04-30T03:58:20;1.60;99.90
7155;DHT22;3619;53.784;10.440;2023-04-30T04:00:49;1.60;99.90
7155;DHT22;3619;53.784;10.440;2023-04-30T04:03:15;1.60;99.90
7155;DHT22;3619;53.784;10.440;2023-04-30T04:05:43;1.70;99.90
7155;DHT22;3619;53.784;10.440;2023-04-30T04:08:10;1.70;99.90
7155;DHT22;3619;53.784;10.440;2023-04-30T04:10:37;1.70;99.90
7155;DHT22;3619;53.784;10.440;2023-04-30T04:13:05;1.70;99.90
7155;DHT22;3619;53.784;10.440;2023-04-30T04:15:32;1.80;99.90
7155;DHT22;3619;53.784;10.440;2023-04-30T04:18:01;1.80;99.90
7155;DHT22;3619;53.784;10.440;2023-04-30T04:20:28;1.90;99.90
7155;DHT22;3619;53.784;10.440;2023-04-30T04:22:55;2.00;99.90
7155;DHT22;3619;53.784;10.440;2023-04-30T04:25:22;2.10;99.90
7155;DHT22;3619;53.784;10.440;2023-04-30T04:27:50;2.20;99.90
7155;DHT22;3619;53.784;10.440;2023-04-30T04:30:17;2.30;99.90
7155;DHT22;3619;53.784;10.440;2023-04-30T04:32:44;2.40;99.90
7155;DHT22;3619;53.784;10.440;2023-04-30T04:35:15;2.40;99.90
7155;DHT22;3619;53.784;10.440;2023-04-30T04:37:43;2.50;99.90
7155;DHT22;3619;53.784;10.440;2023-04-30T04:40:10;2.50;99.90
7155;DHT22;3619;53.784;10.440;2023-04-30T04:42:38;2.60;99.90
7155;DHT22;3619;53.784;10.440;2023-04-30T04:45:06;2.60;99.90
7155;DHT22;3619;53.784;10.440;2023-04-30T04:47:34;2.70;99.90
7155;DHT22;3619;53.784;10.440;2023-04-30T04:50:02;2.80;99.90
7155;DHT22;3619;53.784;10.440;2023-04-30T04:52:30;2.90;99.90
7155;DHT22;3619;53.784;10.440;2023-04-30T04:54:58;3.00;99.90
7155;DHT22;3619;53.784;10.440;2023-04-30T04:57:25;3.10;99.90
7155;DHT22;3619;53.784;10.440;2023-04-30T04:59:52;3.20;99.90
7155;DHT22;3619;53.784;10.440;2023-04-30T05:02:19;3.40;99.90
7155;DHT22;3619;53.784;10.440;2023-04-30T05:04:48;3.40;99.90
7155;DHT22;3619;53.784;10.440;2023-04-30T05:07:16;3.40;99.90
7155;DHT22;3619;53.784;10.440;2023-04-30T05:09:44;3.50;99.90
7155;DHT22;3619;53.784;10.440;2023-04-30T05:12:12;3.50;99.90
7155;DHT22;3619;53.784;10.440;2023-04-30T05:14:38;3.60;99.90
7155;DHT22;3619;53.784;10.440;2023-04-30T05:17:05;3.80;99.90
7155;DHT22;3619;53.784;10.440;2023-04-30T05:19:32;3.90;99.90
7155;DHT22;3619;53.784;10.440;2023-04-30T05:21:59;4.00;99.90
7155;DHT22;3619;53.784;10.440;2023-04-30T05:24:27;4.10;99.90
7155;DHT22;3619;53.784;10.440;2023-04-30T05:26:55;4.20;99.90
7155;DHT22;3619;53.784;10.440;2023-04-30T05:29:21;4.40;99.90
7155;DHT22;3619;53.784;10.440;2023-04-30T05:31:48;4.60;99.90
7155;DHT22;3619;53.784;10.440;2023-04-30T05:34:15;4.60;99.90
7155;DHT22;3619;53.784;10.440;2023-04-30T05:36:42;4.70;99.90
7155;DHT22;3619;53.784;10.440;2023-04-30T05:39:09;4.90;99.90
7155;DHT22;3619;53.784;10.440;2023-04-30T05:41:35;5.10;99.90
7155;DHT22;3619;53.784;10.440;2023-04-30T05:44:04;5.20;99.90
7155;DHT22;3619;53.784;10.440;2023-04-30T05:46:31;5.50;99.90
7155;DHT22;3619;53.784;10.440;2023-04-30T05:48:57;5.60;99.90
7155;DHT22;3619;53.784;10.440;2023-04-30T05:51:24;5.80;99.90
7155;DHT22;3619;53.784;10.440;2023-04-30T05:53:52;6.00;99.90
7155;DHT22;3619;53.784;10.440;2023-04-30T05:56:19;6.10;99.90
7155;DHT22;3619;53.784;10.440;2023-04-30T05:58:46;6.40;99.90
7155;DHT22;3619;53.784;10.440;2023-04-30T06:01:14;6.50;99.90
7155;DHT22;3619;53.784;10.440;2023-04-30T06:03:41;6.70;99.90
7155;DHT22;3619;53.784;10.440;2023-04-30T06:06:08;6.70;99.90
7155;DHT22;3619;53.784;10.440;2023-04-30T06:08:35;6.90;99.90
7155;DHT22;3619;53.784;10.440;2023-04-30T06:11:02;6.90;99.90
7155;DHT22;3619;53.784;10.440;2023-04-30T06:13:30;7.10;99.90
7155;DHT22;3619;53.784;10.440;2023-04-30T06:15:57;7.30;99.90
7155;DHT22;3619;53.784;10.440;2023-04-30T06:18:26;7.70;99.90
7155;DHT22;3619;53.784;10.440;2023-04-30T06:20:53;7.80;99.90
7155;DHT22;3619;53.784;10.440;2023-04-30T06:23:19;8.00;99.90
7155;DHT22;3619;53.784;10.440;2023-04-30T06:25:46;7.90;99.90
7155;DHT22;3619;53.784;10.440;2023-04-30T06:28:13;8.10;99.90
7155;DHT22;3619;53.784;10.440;2023-04-30T06:30:40;8.30;99.90
7155;DHT22;3619;53.784;10.440;2023-04-30T06:33:07;8.40;99.90
7155;DHT22;3619;53.784;10.440;2023-04-30T06:35:35;8.60;99.90
7155;DHT22;3619;53.784;10.440;2023-04-30T06:38:02;8.70;99.90
7155;DHT22;3619;53.784;10.440;2023-04-30T06:40:29;8.70;99.90
7155;DHT22;3619;53.784;10.440;2023-04-30T06:42:55;8.80;99.90
7155;DHT22;3619;53.784;10.440;2023-04-30T06:45:22;8.60;99.90
7155;DHT22;3619;53.784;10.440;2023-04-30T06:47:49;8.40;99.90
7155;DHT22;3619;53.784;10.440;2023-04-30T06:50:17;8.00;99.90
7155;DHT22;3619;53.784;10.440;2023-04-30T06:52:47;7.90;99.90
7155;DHT22;3619;53.784;10.440;2023-04-30T06:55:14;8.10;99.90
7155;DHT22;3619;53.784;10.440;2023-04-30T06:57:41;8.30;99.90
7155;DHT22;3619;53.784;10.440;2023-04-30T07:00:08;8.30;99.90
7155;DHT22;3619;53.784;10.440;2023-04-30T07:02:36;8.30;99.90
7155;DHT22;3619;53.784;10.440;2023-04-30T07:05:03;8.30;99.90
7155;DHT22;3619;53.784;10.440;2023-04-30T07:07:30;8.70;99.90
7155;DHT22;3619;53.784;10.440;2023-04-30T07:10:00;8.90;99.90
7155;DHT22;3619;53.784;10.440;2023-04-30T07:12:27;8.90;99.90
7155;DHT22;3619;53.784;10.440;2023-04-30T07:14:56;9.10;99.90
7155;DHT22;3619;53.784;10.440;2023-04-30T07:17:23;9.10;99.90
7155;DHT22;3619;53.784;10.440;2023-04-30T07:19:50;9.10;99.90
7155;DHT22;3619;53.784;10.440;2023-04-30T07:22:17;9.20;99.90
7155;DHT22;3619;53.784;10.440;2023-04-30T07:24:43;8.70;99.90
7155;DHT22;3619;53.784;10.440;2023-04-30T07:27:11;8.70;99.90
7155;DHT22;3619;53.784;10.440;2023-04-30T07:29:38;8.70;99.90
7155;DHT22;3619;53.784;10.440;2023-04-30T07:32:05;8.70;99.90
7155;DHT22;3619;53.784;10.440;2023-04-30T07:34:32;8.40;99.90
7155;DHT22;3619;53.784;10.440;2023-04-30T07:36:58;8.40;99.90
7155;DHT22;3619;53.784;10.440;2023-04-30T07:39:25;8.60;99.90
7155;DHT22;3619;53.784;10.440;2023-04-30T07:41:52;8.60;99.90
7155;DHT22;3619;53.784;10.440;2023-04-30T07:44:22;8.40;99.90
7155;DHT22;3619;53.784;10.440;2023-04-30T07:46:49;8.50;99.90
7155;DHT22;3619;53.784;10.440;2023-04-30T07:49:17;8.80;99.90
7155;DHT22;3619;53.784;10.440;2023-04-30T07:51:44;9.00;99.90
7155;DHT22;3619;53.784;10.440;2023-04-30T07:54:11;9.00;99.90
7155;DHT22;3619;53.784;10.440;2023-04-30T07:56:38;8.90;99.90
7155;DHT22;3619;53.784;10.440;2023-04-30T07:59:05;8.80;99.90
7155;DHT22;3619;53.784;10.440;2023-04-30T08:01:33;9.00;99.90
7155;DHT22;3619;53.784;10.440;2023-04-30T08:04:00;9.10;99.90
7155;DHT22;3619;53.784;10.440;2023-04-30T08:06:27;9.40;99.90
7155;DHT22;3619;53.784;10.440;2023-04-30T08:08:53;9.50;99.90
7155;DHT22;3619;53.784;10.440;2023-04-30T08:11:20;9.50;99.90
7155;DHT22;3619;53.784;10.440;2023-04-30T08:13:47;9.20;99.90
7155;DHT22;3619;53.784;10.440;2023-04-30T08:16:16;9.40;99.90
7155;DHT22;3619;53.784;10.440;2023-04-30T08:18:44;9.40;99.90
7155;DHT22;3619;53.784;10.440;2023-04-30T08:21:11;9.70;99.90
7155;DHT22;3619;53.784;10.440;2023-04-30T08:26:29;10.20;99.90
7155;DHT22;3619;53.784;10.440;2023-04-30T08:28:55;9.90;99.90
7155;DHT22;3619;53.784;10.440;2023-04-30T08:31:22;10.00;99.90
7155;DHT22;3619;53.784;10.440;2023-04-30T08:33:50;9.90;99.90
7155;DHT22;3619;53.784;10.440;2023-04-30T08:36:17;10.00;99.90
7155;DHT22;3619;53.784;10.440;2023-04-30T08:38:44;10.10;99.90
7155;DHT22;3619;53.784;10.440;2023-04-30T08:41:12;10.10;99.90
7155;DHT22;3619;53.784;10.440;2023-04-30T08:43:39;10.70;99.90
7155;DHT22;3619;53.784;10.440;2023-04-30T08:46:06;10.90;99.90
7155;DHT22;3619;53.784;10.440;2023-04-30T08:48:33;11.10;99.90
7155;DHT22;3619;53.784;10.440;2023-04-30T08:51:03;11.10;99.90
7155;DHT22;3619;53.784;10.440;2023-04-30T08:53:30;11.10;99.90
7155;DHT22;3619;53.784;10.440;2023-04-30T08:56:00;10.90;99.90
7155;DHT22;3619;53.784;10.440;2023-04-30T08:58:27;10.60;99.90
7155;DHT22;3619;53.784;10.440;2023-04-30T09:00:53;10.80;99.90
7155;DHT22;3619;53.784;10.440;2023-04-30T09:03:23;10.80;99.90
7155;DHT22;3619;53.784;10.440;2023-04-30T09:05:50;10.50;99.90
7155;DHT22;3619;53.784;10.440;2023-04-30T09:08:40;10.60;99.90
7155;DHT22;3619;53.784;10.440;2023-04-30T09:11:22;10.50;99.90
7155;DHT22;3619;53.784;10.440;2023-04-30T09:13:50;10.70;99.90
7155;DHT22;3619;53.784;10.440;2023-04-30T09:16:19;10.90;99.90
7155;DHT22;3619;53.784;10.440;2023-04-30T09:18:54;11.30;99.90
7155;DHT22;3619;53.784;10.440;2023-04-30T09:21:31;11.60;99.90
7155;DHT22;3619;53.784;10.440;2023-04-30T09:24:00;12.10;99.90
7155;DHT22;3619;53.784;10.440;2023-04-30T09:26:31;12.00;99.90
7155;DHT22;3619;53.784;10.440;2023-04-30T09:28:58;12.30;99.90
7155;DHT22;3619;53.784;10.440;2023-04-30T09:31:26;12.00;99.90
7155;DHT22;3619;53.784;10.440;2023-04-30T09:33:53;12.00;99.90
7155;DHT22;3619;53.784;10.440;2023-04-30T09:36:20;11.70;99.90
7155;DHT22;3619;53.784;10.440;2023-04-30T09:38:47;11.30;99.90
7155;DHT22;3619;53.784;10.440;2023-04-30T09:41:23;11.20;99.90
7155;DHT22;3619;53.784;10.440;2023-04-30T09:43:51;11.00;99.90
7155;DHT22;3619;53.784;10.440;2023-04-30T09:46:19;11.30;99.90
7155;DHT22;3619;53.784;10.440;2023-04-30T09:48:55;11.40;99.90
7155;DHT22;3619;53.784;10.440;2023-04-30T09:51:22;11.70;99.90
7155;DHT22;3619;53.784;10.440;2023-04-30T09:53:50;12.40;99.90
7155;DHT22;3619;53.784;10.440;2023-04-30T09:56:20;12.30;99.90
7155;DHT22;3619;53.784;10.440;2023-04-30T09:58:50;11.90;99.90
7155;DHT22;3619;53.784;10.440;2023-04-30T10:01:18;11.50;99.90
7155;DHT22;3619;53.784;10.440;2023-04-30T10:03:46;11.30;99.90
7155;DHT22;3619;53.784;10.440;2023-04-30T10:06:14;11.30;99.90
7155;DHT22;3619;53.784;10.440;2023-04-30T10:08:45;11.30;99.90
7155;DHT22;3619;53.784;10.440;2023-04-30T10:11:14;11.30;99.90
7155;DHT22;3619;53.784;10.440;2023-04-30T10:13:49;11.20;99.90
7155;DHT22;3619;53.784;10.440;2023-04-30T10:16:23;11.30;99.90
7155;DHT22;3619;53.784;10.440;2023-04-30T10:18:53;11.50;99.90
7155;DHT22;3619;53.784;10.440;2023-04-30T10:21:22;11.80;99.90
7155;DHT22;3619;53.784;10.440;2023-04-30T10:23:52;12.20;99.90
7155;DHT22;3619;53.784;10.440;2023-04-30T10:26:20;12.60;99.90
7155;DHT22;3619;53.784;10.440;2023-04-30T10:28:49;13.00;99.90
7155;DHT22;3619;53.784;10.440;2023-04-30T10:31:16;12.30;99.90
7155;DHT22;3619;53.784;10.440;2023-04-30T10:33:48;12.20;99.90
7155;DHT22;3619;53.784;10.440;2023-04-30T10:36:25;12.10;99.90
7155;DHT22;3619;53.784;10.440;2023-04-30T10:38:56;12.10;99.90
7155;DHT22;3619;53.784;10.440;2023-04-30T10:41:25;12.20;99.90
7155;DHT22;3619;53.784;10.440;2023-04-30T10:43:56;12.10;99.90
7155;DHT22;3619;53.784;10.440;2023-04-30T10:46:24;12.20;99.90
7155;DHT22;3619;53.784;10.440;2023-04-30T10:48:53;12.30;99.90
7155;DHT22;3619;53.784;10.440;2023-04-30T10:51:20;12.70;99.90
7155;DHT22;3619;53.784;10.440;2023-04-30T10:53:49;13.00;99.90
7155;DHT22;3619;53.784;10.440;2023-04-30T10:56:30;13.00;99.90
7155;DHT22;3619;53.784;10.440;2023-04-30T10:59:01;13.50;99.90
7155;DHT22;3619;53.784;10.440;2023-04-30T11:01:29;13.70;99.90
7155;DHT22;3619;53.784;10.440;2023-04-30T11:04:06;13.60;99.90
7155;DHT22;3619;53.784;10.440;2023-04-30T11:06:54;13.60;99.90
7155;DHT22;3619;53.784;10.440;2023-04-30T11:09:38;14.40;99.90
7155;DHT22;3619;53.784;10.440;2023-04-30T11:12:10;14.60;99.90
7155;DHT22;3619;53.784;10.440;2023-04-30T11:14:41;14.70;99.90
7155;DHT22;3619;53.784;10.440;2023-04-30T11:17:10;14.90;99.90
7155;DHT22;3619;53.784;10.440;2023-04-30T11:19:47;14.20;99.90
7155;DHT22;3619;53.784;10.440;2023-04-30T11:22:20;13.70;99.90
7155;DHT22;3619;53.784;10.440;2023-04-30T11:24:50;13.80;99.90
7155;DHT22;3619;53.784;10.440;2023-04-30T11:27:20;13.90;99.90
7155;DHT22;3619;53.784;10.440;2023-04-30T11:29:49;14.10;99.90
7155;DHT22;3619;53.784;10.440;2023-04-30T11:32:17;14.00;99.90
7155;DHT22;3619;53.784;10.440;2023-04-30T11:34:44;14.20;99.90
7155;DHT22;3619;53.784;10.440;2023-04-30T11:37:14;14.20;99.90
7155;DHT22;3619;53.784;10.440;2023-04-30T11:39:41;14.50;99.90
7155;DHT22;3619;53.784;10.440;2023-04-30T11:42:08;15.00;99.90
7155;DHT22;3619;53.784;10.440;2023-04-30T11:44:38;15.10;99.90
7155;DHT22;3619;53.784;10.440;2023-04-30T11:47:15;15.00;99.90
7155;DHT22;3619;53.784;10.440;2023-04-30T11:49:42;15.20;99.90
7155;DHT22;3619;53.784;10.440;2023-04-30T11:52:11;15.10;99.90
7155;DHT22;3619;53.784;10.440;2023-04-30T11:54:38;15.30;99.90
7155;DHT22;3619;53.784;10.440;2023-04-30T11:57:05;15.50;99.90
7155;DHT22;3619;53.784;10.440;2023-04-30T11:59:39;15.30;99.90
7155;DHT22;3619;53.784;10.440;2023-04-30T12:02:06;14.60;99.90
7155;DHT22;3619;53.784;10.440;2023-04-30T12:04:35;13.90;99.90
7155;DHT22;3619;53.784;10.440;2023-04-30T12:07:02;13.20;99.90
7155;DHT22;3619;53.784;10.440;2023-04-30T12:09:29;13.40;99.90
7155;DHT22;3619;53.784;10.440;2023-04-30T12:11:56;14.10;99.90
7155;DHT22;3619;53.784;10.440;2023-04-30T12:14:24;14.90;99.90
7155;DHT22;3619;53.784;10.440;2023-04-30T12:16:51;15.00;99.90
7155;DHT22;3619;53.784;10.440;2023-04-30T12:19:19;14.80;99.90
7155;DHT22;3619;53.784;10.440;2023-04-30T12:21:48;14.90;99.90
7155;DHT22;3619;53.784;10.440;2023-04-30T12:24:16;15.20;99.90
7155;DHT22;3619;53.784;10.440;2023-04-30T12:26:44;15.00;99.90
7155;DHT22;3619;53.784;10.440;2023-04-30T12:29:14;14.60;99.90
7155;DHT22;3619;53.784;10.440;2023-04-30T12:31:42;14.40;99.90
7155;DHT22;3619;53.784;10.440;2023-04-30T12:34:11;14.30;99.90
7155;DHT22;3619;53.784;10.440;2023-04-30T12:36:39;14.90;99.90
7155;DHT22;3619;53.784;10.440;2023-04-30T12:39:09;15.60;99.90
7155;DHT22;3619;53.784;10.440;2023-04-30T12:41:39;15.90;99.90
7155;DHT22;3619;53.784;10.440;2023-04-30T12:44:16;16.60;99.90
7155;DHT22;3619;53.784;10.440;2023-04-30T12:46:43;17.00;99.90
7155;DHT22;3619;53.784;10.440;2023-04-30T12:49:11;17.40;99.90
7155;DHT22;3619;53.784;10.440;2023-04-30T12:51:41;17.60;99.90
7155;DHT22;3619;53.784;10.440;2023-04-30T12:54:09;17.70;99.90
7155;DHT22;3619;53.784;10.440;2023-04-30T12:56:36;17.20;99.90
7155;DHT22;3619;53.784;10.440;2023-04-30T12:59:14;17.40;99.90
7155;DHT22;3619;53.784;10.440;2023-04-30T13:01:44;17.60;99.90
7155;DHT22;3619;53.784;10.440;2023-04-30T13:04:11;17.60;99.90
7155;DHT22;3619;53.784;10.440;2023-04-30T13:06:38;16.90;99.90
7155;DHT22;3619;53.784;10.440;2023-04-30T13:09:05;16.40;99.90
7155;DHT22;3619;53.784;10.440;2023-04-30T13:11:33;16.60;99.90
7155;DHT22;3619;53.784;10.440;2023-04-30T13:14:00;16.60;99.90
7155;DHT22;3619;53.784;10.440;2023-04-30T13:16:26;16.90;99.90
7155;DHT22;3619;53.784;10.440;2023-04-30T13:18:53;17.00;99.90
7155;DHT22;3619;53.784;10.440;2023-04-30T13:21:20;17.10;99.90
7155;DHT22;3619;53.784;10.440;2023-04-30T13:23:47;17.10;99.90
7155;DHT22;3619;53.784;10.440;2023-04-30T13:26:14;17.20;99.90
7155;DHT22;3619;53.784;10.440;2023-04-30T13:28:43;17.30;99.90
7155;DHT22;3619;53.784;10.440;2023-04-30T13:31:10;17.00;99.90
7155;DHT22;3619;53.784;10.440;2023-04-30T13:33:36;16.90;99.90
7155;DHT22;3619;53.784;10.440;2023-04-30T13:36:03;17.00;99.90
7155;DHT22;3619;53.784;10.440;2023-04-30T13:38:30;17.00;99.40
7155;DHT22;3619;53.784;10.440;2023-04-30T13:40:57;16.70;99.90
7155;DHT22;3619;53.784;10.440;2023-04-30T13:43:24;16.50;99.60
7155;DHT22;3619;53.784;10.440;2023-04-30T13:45:52;15.90;99.00
7155;DHT22;3619;53.784;10.440;2023-04-30T13:48:19;15.70;99.90
7155;DHT22;3619;53.784;10.440;2023-04-30T13:50:46;16.00;99.90
7155;DHT22;3619;53.784;10.440;2023-04-30T13:53:12;16.10;99.90
7155;DHT22;3619;53.784;10.440;2023-04-30T13:55:39;16.60;99.90
7155;DHT22;3619;53.784;10.440;2023-04-30T13:58:06;16.80;99.90
7155;DHT22;3619;53.784;10.440;2023-04-30T14:00:33;17.30;99.90
7155;DHT22;3619;53.784;10.440;2023-04-30T14:03:01;17.60;99.90
7155;DHT22;3619;53.784;10.440;2023-04-30T14:05:27;17.60;99.80
7155;DHT22;3619;53.784;10.440;2023-04-30T14:07:54;17.40;99.10
7155;DHT22;3619;53.784;10.440;2023-04-30T14:10:21;17.10;99.20
7155;DHT22;3619;53.784;10.440;2023-04-30T14:12:48;16.60;99.20
7155;DHT22;3619;53.784;10.440;2023-04-30T14:15:16;16.50;99.90
7155;DHT22;3619;53.784;10.440;2023-04-30T14:17:43;16.40;98.40
7155;DHT22;3619;53.784;10.440;2023-04-30T14:20:12;16.20;99.90
7155;DHT22;3619;53.784;10.440;2023-04-30T14:22:39;16.70;99.90
7155;DHT22;3619;53.784;10.440;2023-04-30T14:25:07;17.30;99.90
7155;DHT22;3619;53.784;10.440;2023-04-30T14:27:34;17.70;99.90
7155;DHT22;3619;53.784;10.440;2023-04-30T14:30:01;18.20;99.90
7155;DHT22;3619;53.784;10.440;2023-04-30T14:32:29;17.80;97.20
7155;DHT22;3619;53.784;10.440;2023-04-30T14:34:56;17.80;99.90
7155;DHT22;3619;53.784;10.440;2023-04-30T14:37:24;17.50;98.00
7155;DHT22;3619;53.784;10.440;2023-04-30T14:39:51;17.60;99.90
7155;DHT22;3619;53.784;10.440;2023-04-30T14:42:17;17.70;97.90
7155;DHT22;3619;53.784;10.440;2023-04-30T14:44:44;17.30;96.80
7155;DHT22;3619;53.784;10.440;2023-04-30T14:47:11;16.90;97.10
7155;DHT22;3619;53.784;10.440;2023-04-30T14:49:39;16.80;99.60
7155;DHT22;3619;53.784;10.440;2023-04-30T14:52:06;17.40;99.90
7155;DHT22;3619;53.784;10.440;2023-04-30T14:54:34;17.90;99.10
7155;DHT22;3619;53.784;10.440;2023-04-30T14:57:01;17.80;99.90
7155;DHT22;3619;53.784;10.440;2023-04-30T14:59:28;17.70;98.40
7155;DHT22;3619;53.784;10.440;2023-04-30T15:01:55;17.70;99.20
7155;DHT22;3619;53.784;10.440;2023-04-30T15:04:22;17.70;97.40
7155;DHT22;3619;53.784;10.440;2023-04-30T15:06:49;17.40;99.00
7155;DHT22;3619;53.784;10.440;2023-04-30T15:09:16;17.40;99.90
7155;DHT22;3619;53.784;10.440;2023-04-30T15:11:45;17.90;99.90
7155;DHT22;3619;53.784;10.440;2023-04-30T15:14:11;18.30;98.00
7155;DHT22;3619;53.784;10.440;2023-04-30T15:16:38;18.30;96.80
7155;DHT22;3619;53.784;10.440;2023-04-30T15:19:05;17.90;97.60
7155;DHT22;3619;53.784;10.440;2023-04-30T15:21:32;17.80;98.70
7155;DHT22;3619;53.784;10.440;2023-04-30T15:23:59;17.90;99.00
7155;DHT22;3619;53.784;10.440;2023-04-30T15:26:27;18.00;96.20
7155;DHT22;3619;53.784;10.440;2023-04-30T15:28:55;18.00;98.80
7155;DHT22;3619;53.784;10.440;2023-04-30T15:31:22;18.20;98.60
7155;DHT22;3619;53.784;10.440;2023-04-30T15:33:49;18.50;98.70
7155;DHT22;3619;53.784;10.440;2023-04-30T15:36:15;18.70;99.40
7155;DHT22;3619;53.784;10.440;2023-04-30T15:38:42;18.60;95.90
7155;DHT22;3619;53.784;10.440;2023-04-30T15:41:09;18.10;94.90
7155;DHT22;3619;53.784;10.440;2023-04-30T15:43:36;17.90;96.30
7155;DHT22;3619;53.784;10.440;2023-04-30T15:46:04;17.60;94.90
7155;DHT22;3619;53.784;10.440;2023-04-30T15:48:31;17.50;96.40
7155;DHT22;3619;53.784;10.440;2023-04-30T15:50:58;17.50;97.40
7155;DHT22;3619;53.784;10.440;2023-04-30T15:53:25;17.10;95.80
7155;DHT22;3619;53.784;10.440;2023-04-30T15:55:52;17.10;97.10
7155;DHT22;3619;53.784;10.440;2023-04-30T15:58:19;17.40;98.90
7155;DHT22;3619;53.784;10.440;2023-04-30T16:00:45;17.60;97.60
7155;DHT22;3619;53.784;10.440;2023-04-30T16:03:14;17.50;96.60
7155;DHT22;3619;53.784;10.440;2023-04-30T16:05:40;17.40;97.80